Batumi International Airport
UGSB : rendu visible

Aérodrome :











RETROUVEZ-NOUS SUR...

 
LOGIN :

S'inscrire | Disclaimer

   EN    FR    IT 

 









Légende :    VFR   VFR Marginal   IFR   IFR Intensif   IFR Très Intensif
Visi : 
Plafond : 
>= 8 km
>= 3000ft
5 à 8 km
1000 à 3000 ft
1500m à 5 km
500 à 1000 ft
800 à 1500m
200 à 500 ft
< 800m
< 200 ft
Symboles :   Orages  Brouillard  Fortes neiges  Fortes précipitations  Vent > 20 kt







- Altitude de l'aérodrome : 105 ft
- Code IATA : BUS


UGSB - Batumi International

DERNIER METAR :
  • 080730Z 21008KT 180V240 9999 -SHRA FEW017CB SCT024 06/03 Q1032 R13/29//55 NOSIG

METARs EXPIRÉS :
  • 080700Z 19007KT 140V230 9000 -SHRA BKN017CB OVC026 05/03 Q1032 R13/29//55 NOSIG
  • 080630Z 19007KT 160V220 9999 -SHRA BKN019 OVC031 05/02 Q1031 R13/29//55 NOSIG
  • 080600Z 20011KT 9999 -SHRA BKN021CB 05/02 Q1031 R13/29//55 NOSIG
  • 080530Z 20010KT 9999 -SHRA BKN022CB 05/02 Q1031 R13/29//55 NOSIG
  • 080500Z 21011KT 9999 -SHRA BKN023CB 05/02 Q1031 R13/29//55 NOSIG

TAF TAF UGSB
Valide du 08 à 06h jusqu'au 09 à 06h UTC


080500Z 0806/0906 21007KT 9999 -SHRA SCT020 BKN040 TX08/0812Z TN05/0900Z
TEMPO 0806/0815 22017KT 4000 SHRA SCT012 BKN020CB
BECMG 0815/0817 13012KT
FIR UGGG / Asie



MET'MAP, la Météo Aéronautique d'un coup d'oeil ! - Copyright ORBIFLY Décembre 2007 - Disclaimer

ORBIFLY MET'MAP TEAM :

Programmation & Développement : Alexandra Zaïnal
Conception & Développement : Baudouin d'Aumeries
Co-Programmation & Développement : Marc-Olivier Méhu
Soutien technique & logistique : Manuel Goepfert

Contact : metmap@orbifly.com




SOURCES & CREDITS :

   NOAA       Earth
Advisory